Terminal Aerodrome Forecast
Issued by NWS Nashville, TN

Home | Current Version | Previous Version | Text Only | Print | Product List | Glossary On
Versions: 1 2 3 4 5 6 7 8 9 10 11 12 13 14 15 16 17 18 19 20 21 22 23 24 25 26 27 28
000
FTUS44 KOHX 261300 AAA
TAFCSV
TAF AMD
KCSV 261359Z 2614/2712 34008KT 6SM BR SCT004 OVC006
     FM261800 33008KT P6SM OVC012
     FM262300 34008KT P6SM OVC035
     FM270200 35006KT P6SM SCT150=

USA.gov is the U.S. government's official web portal to all federal, state and local government web resources and services.